Time;durP1;ratioP1;P1;durP2;ratioP2;P2;SDS_P1;SDS_P2;PMS_P1;PMS_P2;Temp;Humidity;BMP_temperature;BMP_pressure;BME280_temperature;BME280_humidity;BME280_pressure;Samples;Min_cycle;Max_cycle;Signal;HPM_P1;HPM_P2
2023/08/21 00:00:20;;;;;;;;;;;;;;;;;;;;;
2023/08/21 00:02:58;;;;;;;703.13;639.03;;;14.40;78.20;;;;;;6253739;22;20089;-93
2023/08/21 00:05:47;;;;;;;738.15;660.20;;;14.20;78.10;;;;;;6236795;22;20023;-94
2023/08/21 00:08:21;;;;;;;745.72;667.17;;;14.10;77.90;;;;;;6228597;22;20018;-93
2023/08/21 00:11:00;;;;;;;;;;;;;;;;;;;;;
2023/08/21 00:13:47;;;;;;;712.13;643.30;;;13.90;78.10;;;;;;6280476;22;20023;-93
2023/08/21 00:16:32;;;;;;;;;;;;;;;;;;;;;
2023/08/21 00:19:24;;;;;;;804.63;719.20;;;13.80;78.30;;;;;;6272940;22;20113;-95
2023/08/21 00:21:56;;;;;;;747.78;672.85;;;13.80;78.90;;;;;;6282344;22;20089;-94
2023/08/21 00:24:27;;;;;;;816.80;730.03;;;13.70;78.70;;;;;;6252865;22;20495;-93
2023/08/21 00:27:16;;;;;;;743.03;672.85;;;13.80;78.80;;;;;;6219851;22;20023;-93
2023/08/21 00:29:45;;;;;;;822.95;736.17;;;13.70;78.70;;;;;;6204531;22;20397;-94
2023/08/21 00:32:17;;;;;;;791.13;711.00;;;13.70;78.70;;;;;;6196681;22;20076;-94
2023/08/21 00:34:43;;;;;;;781.10;702.92;;;13.70;78.80;;;;;;6271866;22;20015;-93
2023/08/21 00:37:14;;;;;;;829.72;740.67;;;13.70;79.00;;;;;;6243141;22;20106;-93
2023/08/21 00:39:52;;;;;;;719.10;651.85;;;13.80;79.10;;;;;;6248971;22;20024;-93
2023/08/21 00:42:40;;;;;;;744.45;674.88;;;13.80;79.20;;;;;;6213365;22;20079;-94
2023/08/21 00:45:15;;;;;;;758.88;684.55;;;13.90;79.70;;;;;;6266408;22;20019;-93
2023/08/21 00:47:44;;;;;;;791.75;713.10;;;13.90;79.60;;;;;;6240868;22;20019;-94
2023/08/21 00:50:23;;;;;;;;;;;;;;;;;;;;;
2023/08/21 00:52:52;;;;;;;800.05;717.92;;;13.90;79.30;;;;;;6258937;22;20019;-93
2023/08/21 00:55:53;;;;;;;726.13;658.15;;;13.80;79.30;;;;;;6237269;22;20472;-93
2023/08/21 00:58:26;;;;;;;738.63;667.07;;;13.80;79.80;;;;;;6248249;22;20506;-93
2023/08/21 01:01:13;;;;;;;716.30;650.90;;;13.90;79.80;;;;;;6255316;22;20878;-94
2023/08/21 01:03:56;;;;;;;;;;;;;;;;;;;;;
2023/08/21 01:06:23;;;;;;;706.30;636.42;;;13.80;79.60;;;;;;6272054;22;20027;-96
2023/08/21 01:09:14;;;;;;;788.72;706.40;;;13.70;79.30;;;;;;6231256;22;20030;-94
2023/08/21 01:12:06;;;;;;;598.13;543.13;;;13.70;79.10;;;;;;6223858;22;20023;-94
2023/08/21 01:14:51;;;;;;;767.10;686.40;;;13.60;79.10;;;;;;6246101;22;20078;-93
2023/08/21 01:17:27;;;;;;;729.25;655.58;;;13.50;79.10;;;;;;6239714;22;20020;-94
2023/08/21 01:20:00;;;;;;;726.53;655.20;;;13.50;79.00;;;;;;6249001;22;20030;-94
2023/08/21 01:22:39;;;;;;;691.28;623.85;;;13.50;79.20;;;;;;6199165;22;20019;-92
2023/08/21 01:25:10;;;;;;;758.97;681.92;;;13.40;79.30;;;;;;6266769;22;20051;-92
2023/08/21 01:27:44;;;;;;;749.47;675.67;;;13.40;79.30;;;;;;6250542;22;20027;-94
2023/08/21 01:30:11;;;;;;;702.75;634.90;;;13.40;79.50;;;;;;6301803;22;20023;-93
2023/08/21 01:33:10;;;;;;;;;;;;;;;;;;;;;
2023/08/21 01:35:57;;;;;;;712.97;642.30;;;13.30;79.70;;;;;;6290338;22;20019;-93
2023/08/21 01:38:43;;;;;;;;;;;;;;;;;;;;;
2023/08/21 01:41:18;;;;;;;651.08;589.55;;;13.30;79.50;;;;;;6278911;22;20026;-93
2023/08/21 01:43:47;;;;;;;570.92;521.38;;;13.30;79.60;;;;;;6257658;22;20106;-93
2023/08/21 01:46:23;;;;;;;660.58;594.65;;;13.30;79.60;;;;;;6253852;22;20019;-95
2023/08/21 01:48:49;;;;;;;664.03;605.38;;;13.30;79.50;;;;;;6211733;22;20027;-93
2023/08/21 01:51:20;;;;;;;745.55;666.40;;;13.30;79.60;;;;;;6252972;22;20099;-93
2023/08/21 01:54:16;;;;;;;;;;;13.30;79.60;;;;;;6254945;22;20023;-93
2023/08/21 01:56:45;;;;;;;500.15;459.95;;;13.30;80.00;;;;;;6241044;22;19915;-94
2023/08/21 01:59:22;;;;;;;682.25;616.80;;;13.30;80.00;;;;;;6260276;22;20014;-94
2023/08/21 02:01:48;;;;;;;658.55;598.92;;;13.30;79.90;;;;;;6253328;22;20015;-93
2023/08/21 02:04:14;;;;;;;663.72;605.05;;;13.30;79.60;;;;;;6249510;22;20465;-94
2023/08/21 02:06:40;;;;;;;639.20;581.90;;;13.20;79.40;;;;;;6248153;22;20021;-92
2023/08/21 02:09:06;;;;;;;664.15;600.55;;;13.10;79.30;;;;;;6243948;22;20029;-93
2023/08/21 02:11:32;;;;;;;738.65;669.30;;;13.10;79.30;;;;;;6250986;22;20365;-94
2023/08/21 02:14:28;;;;;;;;;;;;;;;;;;;;;
2023/08/21 02:17:14;;;;;;;;;;;;;;;;;;;;;
2023/08/21 02:20:10;;;;;;;591.67;537.45;;;13.00;79.60;;;;;;6274262;22;20023;-93
2023/08/21 02:22:41;;;;;;;619.50;565.38;;;12.90;79.70;;;;;;6235722;22;20019;-93
2023/08/21 02:25:10;;;;;;;493.33;452.60;;;12.90;79.60;;;;;;6252391;22;20042;-92
2023/08/21 02:27:36;;;;;;;603.00;554.33;;;12.80;79.50;;;;;;6268194;22;20068;-94
2023/08/21 02:30:04;;;;;;;732.88;663.83;;;12.80;79.60;;;;;;6252667;22;20023;-93
2023/08/21 02:32:30;;;;;;;641.30;580.28;;;12.80;79.50;;;;;;6282392;22;20570;-94
2023/08/21 02:35:21;;;;;;;617.40;559.30;;;12.70;79.50;;;;;;6226413;22;20094;-93
2023/08/21 02:37:56;;;;;;;533.30;490.40;;;12.70;79.70;;;;;;6245901;22;20023;-93
2023/08/21 02:40:25;;;;;;;518.38;475.85;;;12.60;80.10;;;;;;6252019;22;20046;-92
2023/08/21 02:42:53;;;;;;;528.55;484.33;;;12.60;80.30;;;;;;6248960;22;20038;-94
2023/08/21 02:45:22;;;;;;;575.30;525.40;;;12.60;80.40;;;;;;6252876;22;20106;-92
2023/08/21 02:47:50;;;;;;;557.47;511.02;;;12.50;80.20;;;;;;6218914;22;20039;-92
2023/08/21 02:50:16;;;;;;;568.38;520.38;;;12.50;80.40;;;;;;6251855;22;20019;-93
2023/08/21 02:52:42;;;;;;;572.40;522.85;;;12.50;80.50;;;;;;6249443;22;20015;-92
2023/08/21 02:55:08;;;;;;;658.28;596.13;;;12.50;80.70;;;;;;6252597;22;20025;-93
2023/08/21 02:57:39;;;;;;;542.42;494.23;;;12.50;80.50;;;;;;6227347;22;20027;-92
2023/08/21 03:00:08;;;;;;;549.17;502.40;;;12.50;80.50;;;;;;6270523;22;20053;-93
2023/08/21 03:02:36;;;;;;;549.45;499.08;;;12.50;80.50;;;;;;6218017;22;20022;-93
2023/08/21 03:05:03;;;;;;;642.60;575.72;;;12.50;80.50;;;;;;6270898;22;20157;-92
2023/08/21 03:07:33;;;;;;;558.92;503.38;;;12.50;80.40;;;;;;6244102;22;20113;-93
2023/08/21 03:10:09;;;;;;;;;;;;;;;;;;;;;
2023/08/21 03:12:36;;;;;;;504.25;454.02;;;12.50;80.40;;;;;;6275616;22;20271;-91
2023/08/21 03:15:10;;;;;;;583.88;530.03;;;12.50;80.70;;;;;;6278531;22;20023;-92
2023/08/21 03:17:39;;;;;;;536.75;492.05;;;12.50;80.60;;;;;;6244193;22;20055;-92
2023/08/21 03:20:05;;;;;;;537.70;493.27;;;12.40;80.50;;;;;;6191150;23;20094;-92
2023/08/21 03:22:34;;;;;;;585.97;533.13;;;12.40;80.70;;;;;;6208234;22;20042;-94
2023/08/21 03:24:59;;;;;;;498.45;458.60;;;12.40;80.70;;;;;;6272352;22;20133;-94
2023/08/21 03:27:25;;;;;;;521.20;476.63;;;12.40;80.70;;;;;;6230712;22;20036;-93
2023/08/21 03:29:54;;;;;;;533.97;489.65;;;12.40;80.80;;;;;;6272899;22;20019;-93
2023/08/21 03:32:20;;;;;;;551.38;504.50;;;12.40;80.80;;;;;;6236848;22;20084;-93
2023/08/21 03:34:51;;;;;;;583.35;528.40;;;12.40;80.80;;;;;;6253663;22;20023;-93
2023/08/21 03:37:25;;;;;;;506.77;464.17;;;12.40;80.70;;;;;;6223097;22;20015;-93
2023/08/21 03:40:11;;;;;;;597.50;542.78;;;12.30;80.80;;;;;;6254029;22;20026;-93
2023/08/21 03:42:48;;;;;;;520.58;474.67;;;12.50;81.60;;;;;;6229148;22;20010;-93
2023/08/21 03:45:21;;;;;;;546.70;498.17;;;12.50;82.00;;;;;;6270214;22;20026;-94
2023/08/21 03:48:08;;;;;;;530.90;485.13;;;12.60;82.20;;;;;;6233388;22;20444;-93
2023/08/21 03:54:18;;;;;;;517.05;476.80;;;12.90;83.20;;;;;;6205645;22;20061;-96
2023/08/21 03:56:49;;;;;;;554.75;506.42;;;12.90;83.50;;;;;;6250586;22;20038;-94
2023/08/21 03:59:15;;;;;;;538.40;493.25;;;13.00;83.40;;;;;;6226597;22;20015;-95
2023/08/21 04:02:04;;;;;;;578.58;530.95;;;13.00;83.40;;;;;;6254721;22;20515;-94
2023/08/21 04:04:34;;;;;;;535.63;492.80;;;13.00;83.00;;;;;;6208703;22;20023;-94
2023/08/21 04:07:00;;;;;;;582.78;525.83;;;13.10;83.10;;;;;;6217015;22;20349;-93
2023/08/21 04:09:30;;;;;;;694.85;562.17;;;13.00;83.20;;;;;;6245670;22;20015;-93
2023/08/21 04:11:56;;;;;;;620.05;510.38;;;13.00;83.30;;;;;;6231038;22;20400;-94
2023/08/21 04:14:25;;;;;;;589.60;524.75;;;13.00;83.40;;;;;;6229091;22;20023;-94
2023/08/21 04:16:50;;;;;;;603.60;543.88;;;13.00;83.40;;;;;;6249914;22;20667;-94
2023/08/21 04:19:20;;;;;;;625.20;566.53;;;13.00;83.40;;;;;;6228066;22;20019;-93
2023/08/21 04:21:47;;;;;;;621.47;546.60;;;13.00;83.40;;;;;;6255204;22;20018;-93
2023/08/21 04:24:15;;;;;;;719.47;565.85;;;13.00;83.40;;;;;;6253458;22;20098;-92
2023/08/21 04:26:45;;;;;;;690.92;583.65;;;12.90;83.40;;;;;;6251371;22;20606;-94
2023/08/21 04:29:11;;;;;;;639.00;578.37;;;12.90;83.50;;;;;;6250387;22;20015;-94
2023/08/21 04:31:40;;;;;;;629.28;577.92;;;12.90;83.60;;;;;;6227444;22;20096;-93
2023/08/21 04:34:07;;;;;;;588.95;541.75;;;12.90;83.60;;;;;;6251912;22;20022;-94
2023/08/21 04:36:36;;;;;;;574.17;529.25;;;12.90;83.70;;;;;;6224955;22;20007;-94
2023/08/21 04:39:05;;;;;;;586.88;540.20;;;12.90;83.70;;;;;;6227019;22;20556;-93
2023/08/21 04:41:43;;;;;;;552.38;508.17;;;13.00;83.70;;;;;;6253689;22;20015;-90
2023/08/21 04:44:12;;;;;;;610.75;563.40;;;13.00;83.70;;;;;;6227972;22;20019;-91
2023/08/21 04:46:38;;;;;;;579.08;533.53;;;13.00;83.70;;;;;;6250100;22;20007;-93
2023/08/21 04:49:04;;;;;;;616.70;566.70;;;13.00;83.90;;;;;;6231604;22;20085;-91
2023/08/21 04:51:33;;;;;;;563.85;519.42;;;13.10;83.80;;;;;;6229736;22;20062;-92
2023/08/21 04:54:30;;;;;;;610.35;558.63;;;13.10;83.80;;;;;;6262334;22;20098;-91
2023/08/21 04:57:04;;;;;;;662.95;604.70;;;13.10;83.60;;;;;;6229056;22;20382;-92
2023/08/21 04:59:30;;;;;;;640.38;583.20;;;13.10;83.20;;;;;;6239257;22;20042;-92
2023/08/21 05:01:57;;;;;;;650.70;592.05;;;13.00;83.00;;;;;;6253638;22;20015;-93
2023/08/21 05:04:23;;;;;;;666.13;604.45;;;12.90;83.00;;;;;;6250642;22;20019;-93
2023/08/21 05:06:55;;;;;;;666.10;606.03;;;12.90;83.00;;;;;;6247421;22;20659;-93
2023/08/21 05:09:23;;;;;;;653.95;594.50;;;12.90;83.30;;;;;;6212787;22;20077;-92
2023/08/21 05:11:59;;;;;;;644.50;588.97;;;13.00;83.60;;;;;;6301884;22;20030;-94
2023/08/21 05:14:28;;;;;;;695.45;634.55;;;13.00;83.60;;;;;;6235711;22;20023;-94
2023/08/21 05:16:56;;;;;;;754.28;686.22;;;13.10;83.50;;;;;;6243310;22;20098;-93
2023/08/21 05:19:32;;;;;;;;;;;;;;;;;;;;;
2023/08/21 05:21:58;;;;;;;640.38;584.15;;;13.10;83.20;;;;;;6277509;22;20026;-91
2023/08/21 05:24:29;;;;;;;725.83;654.80;;;13.10;83.20;;;;;;6225585;22;20023;-93
2023/08/21 05:26:55;;;;;;;689.60;626.75;;;13.20;83.20;;;;;;6220562;22;20011;-92
2023/08/21 05:29:24;;;;;;;614.50;564.08;;;13.30;83.30;;;;;;6249094;22;20019;-93
2023/08/21 05:31:50;;;;;;;707.10;646.45;;;13.30;83.50;;;;;;6221847;22;20016;-94
2023/08/21 05:34:16;;;;;;;626.40;575.25;;;13.50;83.50;;;;;;6242099;22;20101;-93
2023/08/21 05:36:43;;;;;;;647.28;593.60;;;13.50;83.60;;;;;;6243184;22;20185;-92
2023/08/21 05:39:11;;;;;;;659.17;604.15;;;13.60;83.70;;;;;;6247236;22;20020;-93
2023/08/21 05:41:52;;;;;;;625.08;575.85;;;13.70;83.80;;;;;;6222135;22;20018;-92
2023/08/21 05:44:21;;;;;;;623.67;574.00;;;13.80;83.90;;;;;;6245218;22;20027;-92
2023/08/21 05:46:48;;;;;;;560.60;516.97;;;13.90;83.90;;;;;;6216664;22;20015;-93
2023/08/21 05:49:17;;;;;;;634.58;584.28;;;14.00;84.00;;;;;;6243937;22;20034;-93
2023/08/21 05:51:44;;;;;;;642.13;588.88;;;14.10;83.90;;;;;;6248749;22;20102;-93
2023/08/21 05:54:32;;;;;;;;;;;;;;;;;;;;;
2023/08/21 05:57:08;;;;;;;627.78;577.85;;;14.40;83.80;;;;;;6297100;22;20016;-93
2023/08/21 05:59:34;;;;;;;629.50;578.78;;;14.50;83.80;;;;;;6270674;22;20089;-92
2023/08/21 06:02:05;;;;;;;653.33;600.70;;;14.70;84.00;;;;;;6249546;22;20016;-92
2023/08/21 06:04:34;;;;;;;633.90;583.10;;;14.90;83.80;;;;;;6210562;22;20031;-92
2023/08/21 06:07:00;;;;;;;649.47;596.08;;;15.20;83.80;;;;;;6218501;22;20084;-91
2023/08/21 06:09:29;;;;;;;668.65;614.90;;;15.40;83.40;;;;;;6245291;22;20094;-92
2023/08/21 06:12:18;;;;;;;703.45;643.85;;;15.50;83.20;;;;;;6249395;22;20023;-92
2023/08/21 06:14:43;;;;;;;705.72;645.80;;;15.60;83.00;;;;;;6238039;22;20170;-91
2023/08/21 06:17:10;;;;;;;718.47;659.20;;;15.60;82.60;;;;;;6228454;22;20115;-90
2023/08/21 06:19:36;;;;;;;733.17;670.15;;;15.60;82.50;;;;;;6272301;22;20033;-90
2023/08/21 06:22:04;;;;;;;729.88;667.67;;;15.70;82.40;;;;;;6249236;22;20022;-91
2023/08/21 06:24:30;;;;;;;738.83;677.72;;;15.80;82.40;;;;;;6246828;22;20454;-93
2023/08/21 06:26:56;;;;;;;760.78;697.25;;;15.80;82.40;;;;;;6244653;22;20031;-92
2023/08/21 06:29:37;;;;;;;;;;;;;;;;;;;;;
2023/08/21 06:32:06;;;;;;;749.15;685.65;;;15.90;82.40;;;;;;6270785;22;20015;-91
2023/08/21 06:34:35;;;;;;;755.40;691.38;;;15.90;82.50;;;;;;6249490;22;20026;-91
2023/08/21 06:37:00;;;;;;;749.42;686.58;;;16.00;82.50;;;;;;6244222;22;20376;-91
2023/08/21 06:39:26;;;;;;;735.75;675.33;;;16.00;82.50;;;;;;6249574;22;20047;-91
2023/08/21 06:41:55;;;;;;;748.72;686.17;;;16.00;82.50;;;;;;6250318;22;20015;-93
2023/08/21 06:44:26;;;;;;;750.33;686.72;;;16.10;82.50;;;;;;6260146;22;20148;-92
2023/08/21 06:46:52;;;;;;;721.72;662.00;;;16.10;82.60;;;;;;6243785;22;20069;-92
2023/08/21 06:49:18;;;;;;;734.95;673.33;;;16.20;82.60;;;;;;6220934;22;20023;-91
2023/08/21 06:51:44;;;;;;;790.40;723.80;;;16.40;82.70;;;;;;6249650;22;20070;-91
2023/08/21 06:54:17;;;;;;;779.28;713.83;;;16.40;82.70;;;;;;6221721;22;20024;-91
2023/08/21 06:56:44;;;;;;;750.50;689.33;;;16.50;82.60;;;;;;6245451;22;20007;-92
2023/08/21 06:59:10;;;;;;;763.30;700.53;;;16.50;82.60;;;;;;6247311;22;20036;-90
2023/08/21 07:01:36;;;;;;;776.38;711.35;;;16.60;82.60;;;;;;6249624;22;20038;-91
2023/08/21 07:04:06;;;;;;;779.88;713.63;;;16.70;82.60;;;;;;6220082;22;20051;-94
2023/08/21 07:06:39;;;;;;;759.00;695.90;;;16.80;82.60;;;;;;6247155;22;20282;-93
2023/08/21 07:09:08;;;;;;;754.28;691.28;;;16.90;82.70;;;;;;6247136;22;20760;-92
2023/08/21 07:11:34;;;;;;;762.03;696.83;;;17.00;82.70;;;;;;6221512;22;20085;-93
2023/08/21 07:14:01;;;;;;;793.28;724.80;;;17.00;82.40;;;;;;6202582;22;20461;-93
2023/08/21 07:16:26;;;;;;;822.70;748.97;;;17.20;82.20;;;;;;6240327;22;20015;-94
2023/08/21 07:18:53;;;;;;;818.47;747.83;;;17.20;82.10;;;;;;6254569;22;20079;-93
2023/08/21 07:21:20;;;;;;;802.63;735.03;;;17.40;81.90;;;;;;6222772;22;20491;-93
2023/08/21 07:23:57;;;;;;;792.13;724.47;;;17.50;81.60;;;;;;6240821;22;20702;-93
2023/08/21 07:26:23;;;;;;;783.72;716.85;;;17.50;81.50;;;;;;6241499;22;20027;-93
2023/08/21 07:28:49;;;;;;;827.15;753.15;;;17.60;81.30;;;;;;6226324;22;20026;-92
2023/08/21 07:31:15;;;;;;;827.85;755.03;;;17.70;80.90;;;;;;6251131;22;20054;-93
2023/08/21 07:34:07;;;;;;;822.63;749.60;;;17.80;80.90;;;;;;6223006;22;20059;-94
2023/08/21 07:36:38;;;;;;;811.20;740.97;;;17.90;80.60;;;;;;6241883;22;20015;-92
2023/08/21 07:39:14;;;;;;;;;;;;;;;;;;;;;
2023/08/21 07:41:49;;;;;;;804.38;733.42;;;18.00;80.20;;;;;;6271281;22;20019;-94
2023/08/21 07:44:18;;;;;;;767.13;700.60;;;18.10;79.60;;;;;;6249077;22;20026;-93
2023/08/21 07:46:44;;;;;;;781.25;712.15;;;18.20;79.40;;;;;;6246095;22;20128;-93
2023/08/21 07:49:10;;;;;;;752.20;686.55;;;18.20;79.20;;;;;;6251504;22;20452;-92
2023/08/21 07:51:39;;;;;;;743.95;678.97;;;18.30;79.00;;;;;;6242943;22;20059;-93
2023/08/21 07:54:05;;;;;;;758.80;694.03;;;18.40;78.60;;;;;;6241360;22;20738;-91
2023/08/21 07:56:35;;;;;;;760.88;696.55;;;18.50;78.10;;;;;;6215315;22;20011;-93
2023/08/21 07:59:04;;;;;;;748.37;684.13;;;18.50;77.70;;;;;;6229636;22;20019;-93
2023/08/21 08:01:32;;;;;;;775.30;708.85;;;18.60;77.60;;;;;;6221621;22;20097;-92
2023/08/21 08:03:58;;;;;;;773.67;707.92;;;18.70;77.50;;;;;;6242527;22;20127;-92
2023/08/21 08:06:25;;;;;;;758.25;692.25;;;18.80;77.10;;;;;;6217687;22;20364;-94
2023/08/21 08:08:53;;;;;;;743.80;681.55;;;18.80;77.10;;;;;;6221084;22;20090;-91
2023/08/21 08:11:20;;;;;;;751.10;689.40;;;18.90;76.40;;;;;;6250295;22;20023;-92
2023/08/21 08:14:03;;;;;;;734.55;674.42;;;19.00;76.20;;;;;;6245559;22;20011;-92
2023/08/21 08:16:30;;;;;;;742.03;680.53;;;19.00;75.80;;;;;;6218741;22;20039;-92
2023/08/21 08:18:58;;;;;;;750.90;686.95;;;19.10;76.20;;;;;;6245350;22;20019;-91
2023/08/21 08:21:26;;;;;;;798.88;732.53;;;19.10;75.10;;;;;;6246426;22;20146;-93
2023/08/21 08:23:52;;;;;;;813.00;744.60;;;19.20;74.30;;;;;;6241395;22;20027;-91
2023/08/21 08:26:18;;;;;;;773.75;707.47;;;19.30;73.50;;;;;;6243511;22;20026;-93
2023/08/21 08:28:44;;;;;;;781.05;715.70;;;19.30;73.00;;;;;;6238457;22;20031;-92
2023/08/21 08:31:17;;;;;;;783.42;715.20;;;19.30;72.70;;;;;;6243982;22;20030;-92
2023/08/21 08:33:43;;;;;;;797.35;728.50;;;19.40;71.90;;;;;;6244108;22;20019;-91
2023/08/21 08:36:12;;;;;;;785.10;717.85;;;19.40;72.30;;;;;;6221666;22;20011;-93
2023/08/21 08:38:38;;;;;;;802.45;734.08;;;19.50;72.30;;;;;;6242754;22;20027;-93
2023/08/21 08:41:25;;;;;;;791.65;724.85;;;19.50;72.00;;;;;;6221997;22;20051;-92
2023/08/21 08:44:00;;;;;;;778.33;710.83;;;19.50;71.90;;;;;;6217536;22;20026;-92
2023/08/21 08:46:28;;;;;;;786.47;720.15;;;19.60;71.90;;;;;;6242091;22;20094;-93
2023/08/21 08:48:55;;;;;;;795.28;727.22;;;19.70;71.90;;;;;;6238652;22;20076;-91
2023/08/21 08:51:22;;;;;;;781.90;715.50;;;19.70;71.60;;;;;;6220424;22;20353;-92
2023/08/21 08:53:51;;;;;;;762.78;699.55;;;19.80;71.30;;;;;;6228541;22;20092;-92
2023/08/21 08:56:23;;;;;;;780.95;715.92;;;19.90;71.30;;;;;;6221483;22;20748;-92
2023/08/21 08:58:49;;;;;;;812.72;742.00;;;19.90;71.40;;;;;;6242095;22;20023;-91
2023/08/21 09:01:15;;;;;;;782.78;716.70;;;20.00;71.30;;;;;;6221185;22;20023;-92
2023/08/21 09:03:41;;;;;;;805.53;737.35;;;20.00;70.90;;;;;;6246686;22;20034;-92
2023/08/21 09:06:09;;;;;;;800.60;732.78;;;20.10;70.50;;;;;;6221760;22;20015;-93
2023/08/21 09:09:13;;;;;;;781.28;714.65;;;20.20;70.20;;;;;;6218094;22;20026;-92
2023/08/21 09:11:44;;;;;;;784.00;716.50;;;20.30;69.50;;;;;;6297631;22;20054;-93
2023/08/21 09:14:10;;;;;;;814.53;742.70;;;20.30;70.50;;;;;;6256195;22;20045;-93
2023/08/21 09:17:03;;;;;;;805.60;736.30;;;20.50;70.40;;;;;;6242760;22;20023;-93
2023/08/21 09:19:30;;;;;;;808.75;738.22;;;20.50;69.40;;;;;;6201103;22;20094;-93
2023/08/21 09:21:56;;;;;;;771.35;704.97;;;20.60;70.00;;;;;;6244006;22;20349;-91
2023/08/21 09:24:23;;;;;;;818.60;748.15;;;20.70;69.90;;;;;;6239999;22;20019;-90
2023/08/21 09:26:54;;;;;;;826.17;753.90;;;20.80;69.90;;;;;;6239979;22;20015;-91
2023/08/21 09:29:23;;;;;;;811.65;741.92;;;20.80;69.60;;;;;;6295067;22;20027;-91
2023/08/21 09:31:49;;;;;;;865.17;784.58;;;20.90;69.00;;;;;;6243511;22;20073;-91
2023/08/21 09:34:14;;;;;;;865.00;786.22;;;20.90;68.40;;;;;;6242409;22;20027;-92
2023/08/21 09:36:42;;;;;;;840.00;762.25;;;21.00;68.60;;;;;;6241415;22;20530;-93
2023/08/21 09:39:22;;;;;;;823.83;753.47;;;21.10;68.50;;;;;;6246098;22;20020;-89
2023/08/21 09:41:58;;;;;;;841.25;766.58;;;21.10;68.30;;;;;;6247069;22;20073;-93
2023/08/21 09:44:24;;;;;;;782.63;717.65;;;21.20;67.60;;;;;;6242448;22;20019;-92
2023/08/21 09:46:50;;;;;;;806.38;738.90;;;21.30;68.70;;;;;;6214123;22;20098;-92
2023/08/21 09:49:18;;;;;;;828.58;758.47;;;21.40;68.70;;;;;;6233036;22;20073;-92
2023/08/21 09:51:44;;;;;;;839.20;767.15;;;21.50;68.70;;;;;;6219916;22;20034;-91
2023/08/21 09:54:21;;;;;;;829.95;759.35;;;21.50;68.60;;;;;;6255998;22;20014;-92
2023/08/21 09:56:55;;;;;;;831.55;760.45;;;21.50;67.80;;;;;;6243219;22;20179;-92
2023/08/21 09:59:45;;;;;;;;;;;;;;;;;;;;;
2023/08/21 10:02:14;;;;;;;874.42;791.03;;;21.70;65.90;;;;;;6269385;22;20016;-92
2023/08/21 10:04:45;;;;;;;792.22;725.83;;;21.70;66.70;;;;;;6220635;22;20050;-91
2023/08/21 10:07:12;;;;;;;806.67;741.40;;;21.70;66.50;;;;;;6237129;22;20118;-92
2023/08/21 10:09:41;;;;;;;777.08;713.10;;;21.70;66.60;;;;;;6243547;22;20023;-91
2023/08/21 10:12:09;;;;;;;761.90;702.40;;;21.90;66.20;;;;;;6227300;22;20625;-92
2023/08/21 10:14:36;;;;;;;778.70;715.15;;;21.90;66.60;;;;;;6244530;22;20531;-91
2023/08/21 10:17:05;;;;;;;784.85;718.97;;;21.90;66.50;;;;;;6237815;22;20011;-91
2023/08/21 10:19:32;;;;;;;854.65;775.95;;;22.00;65.90;;;;;;6218485;22;20018;-91
2023/08/21 10:22:04;;;;;;;768.17;705.22;;;22.00;66.30;;;;;;6244066;22;20046;-92
2023/08/21 10:24:47;;;;;;;799.28;730.08;;;22.10;66.50;;;;;;6240579;22;20024;-92
2023/08/21 10:27:13;;;;;;;800.85;735.00;;;22.20;65.50;;;;;;6235722;22;20105;-92
2023/08/21 10:30:02;;;;;;;781.58;716.00;;;22.30;66.50;;;;;;6244784;22;20053;-92
2023/08/21 10:32:31;;;;;;;793.67;726.80;;;22.40;64.20;;;;;;6224972;22;20815;-91
2023/08/21 10:35:00;;;;;;;758.72;696.25;;;22.50;64.80;;;;;;6212062;22;20011;-91
2023/08/21 10:37:26;;;;;;;765.28;703.03;;;22.50;65.00;;;;;;6205635;22;20019;-92
2023/08/21 10:39:56;;;;;;;803.95;735.42;;;22.50;65.00;;;;;;6211444;22;20448;-92
2023/08/21 10:42:46;;;;;;;769.92;707.38;;;22.50;64.80;;;;;;6199132;22;20031;-93
2023/08/21 10:45:15;;;;;;;780.47;715.95;;;22.50;64.20;;;;;;6228225;22;20027;-92
2023/08/21 10:47:41;;;;;;;783.85;718.72;;;22.50;65.60;;;;;;6199388;22;20019;-91
2023/08/21 10:50:08;;;;;;;802.60;734.90;;;22.60;65.40;;;;;;6201357;22;20026;-91
2023/08/21 10:52:44;;;;;;;789.28;717.88;;;22.60;65.30;;;;;;6208182;22;20579;-91
2023/08/21 10:55:11;;;;;;;801.50;734.53;;;22.70;65.50;;;;;;6211805;22;20045;-90
2023/08/21 10:57:42;;;;;;;764.53;700.28;;;22.80;65.40;;;;;;6166298;22;20015;-91
2023/08/21 11:00:24;;;;;;;811.08;742.83;;;22.80;64.80;;;;;;6229044;22;20653;-92
2023/08/21 11:02:50;;;;;;;777.03;713.15;;;22.90;64.60;;;;;;6180062;22;20023;-91
2023/08/21 11:05:17;;;;;;;777.53;712.65;;;22.90;65.10;;;;;;6228473;22;20051;-91
2023/08/21 11:07:45;;;;;;;749.72;690.17;;;23.00;65.10;;;;;;6207594;22;20349;-90
2023/08/21 11:10:13;;;;;;;780.90;714.35;;;23.10;65.30;;;;;;6215624;22;20030;-92
2023/08/21 11:12:49;;;;;;;800.03;733.40;;;23.10;64.70;;;;;;6202284;22;20038;-92
2023/08/21 11:15:17;;;;;;;769.97;707.97;;;23.10;63.70;;;;;;6228873;22;20533;-92
2023/08/21 11:18:06;;;;;;;796.47;727.78;;;23.20;64.40;;;;;;6199690;22;20029;-91
2023/08/21 11:20:33;;;;;;;784.88;719.53;;;23.20;64.30;;;;;;6226517;22;20034;-91
2023/08/21 11:23:07;;;;;;;804.33;737.40;;;23.20;64.50;;;;;;6212034;22;20077;-91
2023/08/21 11:25:42;;;;;;;808.92;741.92;;;23.20;63.90;;;;;;6214190;22;20020;-89
2023/08/21 11:28:08;;;;;;;783.80;719.00;;;23.10;63.20;;;;;;6206786;22;20020;-91
2023/08/21 11:30:38;;;;;;;793.75;729.08;;;23.10;64.70;;;;;;6189131;22;20035;-92
2023/08/21 11:33:39;;;;;;;804.30;736.90;;;23.10;64.60;;;;;;6206914;22;20566;-91
2023/08/21 11:36:11;;;;;;;788.83;723.20;;;23.10;64.00;;;;;;6237443;22;20035;-93
2023/08/21 11:38:37;;;;;;;837.80;765.67;;;23.00;64.50;;;;;;6234979;22;20603;-91
2023/08/21 11:41:05;;;;;;;796.28;729.38;;;23.00;64.70;;;;;;6211096;22;20099;-92
2023/08/21 11:43:37;;;;;;;792.05;727.47;;;23.00;64.60;;;;;;6221200;22;20457;-91
2023/08/21 11:46:07;;;;;;;831.53;760.25;;;23.10;64.80;;;;;;6238067;22;20020;-91
2023/08/21 11:48:35;;;;;;;796.80;731.08;;;23.30;64.30;;;;;;6229683;22;20035;-90
2023/08/21 11:51:01;;;;;;;796.13;729.70;;;23.40;64.10;;;;;;6238103;22;20108;-92
2023/08/21 11:53:49;;;;;;;892.10;812.80;;;23.50;64.20;;;;;;6233938;22;20028;-91
2023/08/21 11:56:17;;;;;;;854.38;779.70;;;23.60;63.20;;;;;;6236303;22;20024;-92
2023/08/21 11:58:46;;;;;;;827.88;758.65;;;23.70;63.10;;;;;;6230130;22;20220;-91
2023/08/21 12:01:26;;;;;;;847.88;775.53;;;23.80;63.20;;;;;;6241473;22;20019;-91
2023/08/21 12:03:54;;;;;;;872.47;795.55;;;23.90;63.00;;;;;;6246466;22;20023;-91
2023/08/21 12:06:22;;;;;;;817.95;747.40;;;23.90;62.80;;;;;;6241905;22;20019;-92
2023/08/21 12:08:48;;;;;;;870.80;794.08;;;23.90;62.90;;;;;;6235527;22;20047;-90
2023/08/21 12:11:42;;;;;;;856.20;784.15;;;23.80;62.50;;;;;;6241254;22;20115;-91
2023/08/21 12:14:28;;;;;;;;;;;;;;;;;;;;;
2023/08/21 12:16:57;;;;;;;830.33;761.42;;;23.90;62.80;;;;;;6290740;22;20536;-91
2023/08/21 12:19:23;;;;;;;919.97;824.92;;;23.90;62.90;;;;;;6240284;22;20024;-89
2023/08/21 12:21:58;;;;;;;834.40;762.35;;;24.00;62.50;;;;;;6240777;22;20011;-91
2023/08/21 12:24:24;;;;;;;795.35;731.10;;;24.00;62.10;;;;;;6238966;22;20347;-89
2023/08/21 12:26:50;;;;;;;819.63;752.35;;;24.00;61.90;;;;;;6208711;22;20027;-91
2023/08/21 12:29:16;;;;;;;850.88;773.00;;;24.10;62.20;;;;;;6249922;22;20712;-90
2023/08/21 12:31:43;;;;;;;806.17;739.55;;;24.20;61.80;;;;;;6244295;22;20019;-90
2023/08/21 12:34:15;;;;;;;894.47;807.42;;;24.20;62.00;;;;;;6243461;22;20023;-91
2023/08/21 12:36:44;;;;;;;842.45;769.13;;;24.30;61.40;;;;;;6240078;22;20026;-90
2023/08/21 12:39:15;;;;;;;841.92;769.58;;;24.30;60.90;;;;;;6242418;22;20024;-92
2023/08/21 12:41:44;;;;;;;776.88;712.97;;;24.20;60.80;;;;;;6220409;22;20069;-90
2023/08/21 12:44:15;;;;;;;890.97;805.42;;;24.20;61.70;;;;;;6228157;22;20701;-92
2023/08/21 12:46:44;;;;;;;855.83;774.42;;;24.20;61.20;;;;;;6214458;22;20108;-90
2023/08/21 12:49:10;;;;;;;1034.22;842.88;;;24.20;61.60;;;;;;6241765;22;20796;-90
2023/08/21 12:51:39;;;;;;;832.90;757.95;;;24.30;60.70;;;;;;6221565;22;20019;-92
2023/08/21 12:54:05;;;;;;;807.20;738.65;;;24.20;60.30;;;;;;6255878;22;20079;-90